Time;durP1;ratioP1;P1;durP2;ratioP2;P2;SDS_P1;SDS_P2;PMS_P1;PMS_P2;Temp;Humidity;BMP_temperature;BMP_pressure;BME280_temperature;BME280_humidity;BME280_pressure;Samples;Min_cycle;Max_cycle;Signal;HPM_P1;HPM_P2
2022/12/24 00:00:01;;;;;;;;;;;10.30;99.90;;;;;;5067353;28;19928;-74
2022/12/24 00:02:28;;;;;;;;;;;10.30;99.90;;;;;;5066552;28;19980;-74
2022/12/24 00:04:56;;;;;;;;;;;10.30;99.90;;;;;;5070071;28;19928;-73
2022/12/24 00:07:23;;;;;;;;;;;10.30;99.90;;;;;;5068494;28;20003;-74
2022/12/24 00:09:49;;;;;;;;;;;10.30;99.90;;;;;;5069155;28;19930;-73
2022/12/24 00:12:16;;;;;;;;;;;10.30;99.90;;;;;;5067522;28;19928;-73
2022/12/24 00:14:43;;;;;;;;;;;10.30;99.90;;;;;;5066828;28;19928;-74
2022/12/24 00:17:09;;;;;;;;;;;10.30;99.90;;;;;;5065521;28;20307;-74
2022/12/24 00:19:36;;;;;;;;;;;10.20;99.90;;;;;;5066783;28;20581;-74
2022/12/24 00:22:07;;;;;;;;;;;10.30;99.90;;;;;;5067892;28;20028;-75
2022/12/24 00:24:34;;;;;;;;;;;10.20;99.90;;;;;;5066189;28;22094;-73
2022/12/24 00:27:02;;;;;;;;;;;10.30;99.90;;;;;;5067761;28;19928;-75
2022/12/24 00:29:29;;;;;;;;;;;10.20;99.90;;;;;;5066737;28;20181;-73
2022/12/24 00:31:55;;;;;;;;;;;10.30;99.90;;;;;;5066109;28;20022;-73
2022/12/24 00:34:22;;;;;;;;;;;10.30;99.90;;;;;;5066463;28;19931;-73
2022/12/24 00:36:49;;;;;;;;;;;10.40;99.90;;;;;;5069904;28;19935;-73
2022/12/24 00:39:18;;;;;;;;;;;10.40;99.90;;;;;;5068301;28;20324;-74
2022/12/24 00:41:45;;;;;;;;;;;10.40;99.90;;;;;;5067338;28;20433;-75
2022/12/24 00:44:12;;;;;;;;;;;10.40;99.90;;;;;;5068846;28;20672;-74
2022/12/24 00:46:39;;;;;;;;;;;10.50;99.90;;;;;;5068988;28;19924;-73
2022/12/24 00:49:06;;;;;;;;;;;10.50;99.90;;;;;;5065811;28;20437;-73
2022/12/24 00:51:33;;;;;;;;;;;10.50;99.90;;;;;;5066716;28;20292;-73
2022/12/24 00:54:00;;;;;;;;;;;10.50;99.90;;;;;;5069165;28;19928;-74
2022/12/24 00:56:28;;;;;;;;;;;10.60;99.90;;;;;;5070634;28;19934;-75
2022/12/24 00:58:55;;;;;;;;;;;10.60;99.90;;;;;;5069750;28;19925;-74
2022/12/24 01:01:22;;;;;;;;;;;10.50;99.90;;;;;;5071567;28;20403;-72
2022/12/24 01:03:49;;;;;;;;;;;10.50;99.90;;;;;;5070574;28;19928;-73
2022/12/24 01:06:19;;;;;;;;;;;10.60;99.90;;;;;;5070942;28;19939;-74
2022/12/24 01:08:46;;;;;;;;;;;10.60;99.90;;;;;;5071091;28;20010;-74
2022/12/24 01:11:13;;;;;;;;;;;10.60;99.90;;;;;;5072253;28;19935;-73
2022/12/24 01:13:41;;;;;;;;;;;10.60;99.90;;;;;;5073875;28;20019;-74
2022/12/24 01:16:14;;;;;;;;;;;10.60;99.90;;;;;;5070108;28;19942;-74
2022/12/24 01:18:40;;;;;;;;;;;10.60;99.90;;;;;;5071316;28;19928;-73
2022/12/24 01:21:08;;;;;;;;;;;10.50;99.90;;;;;;5072465;28;20440;-74
2022/12/24 01:23:36;;;;;;;;;;;10.50;99.90;;;;;;5072323;28;20009;-74
2022/12/24 01:26:03;;;;;;;;;;;10.40;99.90;;;;;;5070622;28;19974;-73
2022/12/24 01:28:31;;;;;;;;;;;10.30;99.90;;;;;;5076235;28;20056;-72
2022/12/24 01:30:59;;;;;;;;;;;10.30;99.90;;;;;;5073286;28;21214;-72
2022/12/24 01:33:28;;;;;;;;;;;10.30;99.90;;;;;;5066660;28;22653;-73
2022/12/24 01:35:54;;;;;;;;;;;10.30;99.90;;;;;;5070648;28;19928;-73
2022/12/24 01:38:21;;;;;;;;;;;10.30;99.90;;;;;;5074463;28;19928;-72
2022/12/24 01:43:35;;;;;;;;;;;10.20;99.90;;;;;;5074184;28;19967;-75
2022/12/24 01:46:04;;;;;;;;;;;10.30;99.90;;;;;;5073187;28;20055;-73
2022/12/24 01:48:35;;;;;;;;;;;10.30;99.90;;;;;;5073147;28;20554;-72
2022/12/24 01:51:04;;;;;;;;;;;10.30;99.90;;;;;;5070510;28;19932;-73
2022/12/24 01:53:36;;;;;;;;;;;10.30;99.90;;;;;;5069119;28;20983;-73
2022/12/24 01:56:03;;;;;;;;;;;10.20;99.90;;;;;;5071724;28;19929;-73
2022/12/24 01:58:30;;;;;;;;;;;10.20;99.90;;;;;;5073404;28;19932;-73
2022/12/24 02:00:57;;;;;;;;;;;10.30;99.90;;;;;;5070936;28;20279;-74
2022/12/24 02:03:25;;;;;;;;;;;10.20;99.90;;;;;;5074418;28;19928;-73
2022/12/24 02:05:53;;;;;;;;;;;10.20;99.90;;;;;;5070777;28;19932;-75
2022/12/24 02:08:20;;;;;;;;;;;10.20;99.90;;;;;;5073807;28;20024;-73
2022/12/24 02:10:47;;;;;;;;;;;10.20;99.90;;;;;;5070280;28;19940;-74
2022/12/24 02:13:15;;;;;;;;;;;10.20;99.90;;;;;;5068906;28;19935;-72
2022/12/24 02:15:59;;;;;;;;;;;10.20;99.90;;;;;;5071185;28;20026;-73
2022/12/24 02:18:32;;;;;;;;;;;10.20;99.90;;;;;;5062999;28;20016;-74
2022/12/24 02:21:23;;;;;;;;;;;10.20;99.90;;;;;;5070843;28;19981;-74
2022/12/24 02:24:02;;;;;;;;;;;10.30;99.90;;;;;;5066680;28;20342;-72
2022/12/24 02:26:39;;;;;;;;;;;10.30;99.90;;;;;;5072042;28;20033;-73
2022/12/24 02:29:14;;;;;;;;;;;10.30;99.90;;;;;;5075486;28;19936;-73
2022/12/24 02:31:43;;;;;;;;;;;10.30;99.90;;;;;;5070652;28;19923;-75
2022/12/24 02:34:15;;;;;;;;;;;10.30;99.90;;;;;;5071816;28;19924;-74
2022/12/24 02:36:43;;;;;;;;;;;10.30;99.90;;;;;;5071891;28;19997;-73
2022/12/24 02:39:12;;;;;;;;;;;10.30;99.90;;;;;;5072634;28;20011;-73
2022/12/24 02:44:23;;;;;;;;;;;10.30;99.90;;;;;;5074442;28;20003;-74
2022/12/24 02:46:52;;;;;;;;;;;10.20;99.90;;;;;;5073431;28;20284;-73
2022/12/24 02:49:19;;;;;;;;;;;10.20;99.90;;;;;;5072459;28;19938;-74
2022/12/24 02:51:46;;;;;;;;;;;10.20;99.90;;;;;;5070832;28;19924;-73
2022/12/24 02:54:13;;;;;;;;;;;10.20;99.90;;;;;;5074113;28;19928;-73
2022/12/24 02:56:45;;;;;;;;;;;10.30;99.90;;;;;;5072668;28;19931;-74
2022/12/24 02:59:27;;;;;;;;;;;10.30;99.90;;;;;;5072082;28;19932;-74
2022/12/24 03:01:59;;;;;;;;;;;10.30;99.90;;;;;;5068015;28;19932;-73
2022/12/24 03:04:39;;;;;;;;;;;10.40;99.90;;;;;;5072175;28;20917;-73
2022/12/24 03:07:09;;;;;;;;;;;10.40;99.90;;;;;;5069226;28;21492;-73
2022/12/24 03:09:39;;;;;;;;;;;10.50;99.90;;;;;;5068415;28;19932;-74
2022/12/24 03:12:07;;;;;;;;;;;10.50;99.90;;;;;;5070542;28;20026;-73
2022/12/24 03:14:34;;;;;;;;;;;10.50;99.90;;;;;;5073228;28;19932;-73
2022/12/24 03:17:03;;;;;;;;;;;10.50;99.90;;;;;;5069583;28;19928;-74
2022/12/24 03:19:31;;;;;;;;;;;10.50;99.90;;;;;;5071563;28;19964;-73
2022/12/24 03:21:59;;;;;;;;;;;10.50;99.90;;;;;;5073003;28;19932;-74
2022/12/24 03:24:26;;;;;;;;;;;10.50;99.90;;;;;;5072798;28;19948;-73
2022/12/24 03:26:52;;;;;;;;;;;10.50;99.90;;;;;;5072876;28;19932;-73
2022/12/24 03:29:20;;;;;;;;;;;10.50;99.90;;;;;;5074563;28;19935;-72
2022/12/24 03:31:47;;;;;;;;;;;10.50;99.90;;;;;;5072128;28;19932;-72
2022/12/24 03:34:16;;;;;;;;;;;10.50;99.90;;;;;;5071291;28;19932;-72
2022/12/24 03:36:43;;;;;;;;;;;10.40;99.90;;;;;;5068252;28;19951;-72
2022/12/24 03:39:09;;;;;;;;;;;10.30;99.90;;;;;;5068282;28;19932;-73
2022/12/24 03:41:36;;;;;;;;;;;10.30;99.90;;;;;;5070849;28;20314;-74
2022/12/24 03:44:03;;;;;;;;;;;10.30;99.90;;;;;;5072906;28;20276;-73
2022/12/24 03:46:30;;;;;;;;;;;10.20;99.90;;;;;;5074646;28;19928;-74
2022/12/24 03:48:57;;;;;;;;;;;10.20;99.90;;;;;;5073725;28;19924;-74
2022/12/24 03:51:25;;;;;;;;;;;10.20;99.90;;;;;;5068563;28;19990;-74
2022/12/24 03:53:52;;;;;;;;;;;10.20;99.90;;;;;;5070475;28;19929;-73
2022/12/24 03:56:19;;;;;;;;;;;10.10;99.90;;;;;;5071088;28;20409;-74
2022/12/24 03:58:45;;;;;;;;;;;10.20;99.90;;;;;;5071347;28;19928;-73
2022/12/24 04:01:12;;;;;;;;;;;10.20;99.90;;;;;;5070320;28;21302;-73
2022/12/24 04:03:39;;;;;;;;;;;10.20;99.90;;;;;;5071735;28;19928;-73
2022/12/24 04:06:07;;;;;;;;;;;10.20;99.90;;;;;;5070305;28;19932;-73
2022/12/24 04:08:35;;;;;;;;;;;10.20;99.90;;;;;;5070748;28;20028;-74
2022/12/24 04:11:03;;;;;;;;;;;10.10;99.90;;;;;;5071980;28;20015;-73
2022/12/24 04:13:30;;;;;;;;;;;10.10;99.90;;;;;;5069375;28;19942;-74
2022/12/24 04:15:58;;;;;;;;;;;10.10;99.90;;;;;;5069529;28;20546;-73
2022/12/24 04:18:24;;;;;;;;;;;10.00;99.90;;;;;;5071067;28;19951;-74
2022/12/24 04:20:51;;;;;;;;;;;9.90;99.90;;;;;;5070732;28;20395;-74
2022/12/24 04:23:18;;;;;;;;;;;9.90;99.90;;;;;;5065119;28;19932;-72
2022/12/24 04:25:46;;;;;;;;;;;9.90;99.90;;;;;;5068077;28;19943;-72
2022/12/24 04:28:13;;;;;;;;;;;9.80;99.90;;;;;;5068950;28;19932;-71
2022/12/24 04:30:40;;;;;;;;;;;9.80;99.90;;;;;;5074066;28;19932;-73
2022/12/24 04:33:07;;;;;;;;;;;9.80;99.90;;;;;;5077401;28;19934;-73
2022/12/24 04:35:34;;;;;;;;;;;9.80;99.90;;;;;;5073390;28;19988;-72
2022/12/24 04:38:00;;;;;;;;;;;9.90;99.90;;;;;;5075888;28;20014;-73
2022/12/24 04:40:27;;;;;;;;;;;10.00;99.90;;;;;;5073719;28;19939;-73
2022/12/24 04:42:55;;;;;;;;;;;10.00;99.90;;;;;;5070730;28;20014;-73
2022/12/24 04:45:21;;;;;;;;;;;10.00;99.90;;;;;;5074420;28;19932;-73
2022/12/24 04:47:48;;;;;;;;;;;10.00;99.90;;;;;;5072299;28;20015;-73
2022/12/24 04:50:15;;;;;;;;;;;10.00;99.90;;;;;;5071095;28;20362;-73
2022/12/24 04:52:42;;;;;;;;;;;10.00;99.90;;;;;;5076024;28;19924;-74
2022/12/24 04:55:09;;;;;;;;;;;10.10;99.90;;;;;;5071373;28;22006;-73
2022/12/24 04:57:36;;;;;;;;;;;10.10;99.90;;;;;;5074090;28;20013;-73
2022/12/24 05:00:05;;;;;;;;;;;10.10;99.90;;;;;;5073290;28;20380;-73
2022/12/24 05:02:32;;;;;;;;;;;10.00;99.90;;;;;;5074022;28;20016;-74
2022/12/24 05:04:59;;;;;;;;;;;9.90;99.90;;;;;;5074248;28;20019;-74
2022/12/24 05:07:25;;;;;;;;;;;9.80;99.90;;;;;;5073982;28;19928;-73
2022/12/24 05:09:52;;;;;;;;;;;9.80;99.90;;;;;;5073555;28;20322;-74
2022/12/24 05:12:19;;;;;;;;;;;9.70;99.90;;;;;;5073112;28;20311;-73
2022/12/24 05:14:45;;;;;;;;;;;9.70;99.90;;;;;;5072122;28;19934;-73
2022/12/24 05:17:13;;;;;;;;;;;9.70;99.90;;;;;;5071646;28;20414;-74
2022/12/24 05:19:40;;;;;;;;;;;9.60;99.90;;;;;;5075758;28;20027;-74
2022/12/24 05:27:35;;;;;;;;;;;9.60;99.90;;;;;;5074092;28;20001;-74
2022/12/24 05:30:02;;;;;;;;;;;9.60;99.90;;;;;;5074088;28;20022;-74
2022/12/24 05:32:30;;;;;;;;;;;9.60;99.90;;;;;;5070019;28;19929;-74
2022/12/24 05:34:57;;;;;;;;;;;9.60;99.90;;;;;;5069831;28;19931;-74
2022/12/24 05:37:23;;;;;;;;;;;9.60;99.90;;;;;;5074020;28;19970;-75
2022/12/24 05:39:50;;;;;;;;;;;9.60;99.90;;;;;;5072988;28;20075;-75
2022/12/24 05:42:17;;;;;;;;;;;9.60;99.90;;;;;;5068347;28;20306;-73
2022/12/24 05:44:43;;;;;;;;;;;9.70;99.90;;;;;;5073774;28;19934;-73
2022/12/24 05:47:10;;;;;;;;;;;9.70;99.90;;;;;;5071332;28;20524;-74
2022/12/24 05:49:38;;;;;;;;;;;9.80;99.90;;;;;;5069297;28;19924;-73
2022/12/24 05:52:04;;;;;;;;;;;9.80;99.90;;;;;;5072656;28;19934;-73
2022/12/24 05:54:31;;;;;;;;;;;9.80;99.90;;;;;;5073066;28;19939;-73
2022/12/24 05:56:58;;;;;;;;;;;9.90;99.90;;;;;;5071758;28;20448;-73
2022/12/24 05:59:24;;;;;;;;;;;9.80;99.90;;;;;;5073723;28;20388;-73
2022/12/24 06:01:51;;;;;;;;;;;9.80;99.90;;;;;;5071596;28;19928;-73
2022/12/24 06:04:18;;;;;;;;;;;9.80;99.90;;;;;;5072913;28;20655;-73
2022/12/24 06:06:46;;;;;;;;;;;9.80;99.90;;;;;;5071186;28;19928;-73
2022/12/24 06:09:13;;;;;;;;;;;9.90;99.90;;;;;;5072532;28;19951;-74
2022/12/24 06:11:40;;;;;;;;;;;9.90;99.90;;;;;;5073097;28;19971;-74
2022/12/24 06:14:07;;;;;;;;;;;9.90;99.90;;;;;;5070452;28;20341;-73
2022/12/24 06:16:33;;;;;;;;;;;9.90;99.90;;;;;;5086141;28;20023;-75
2022/12/24 06:19:00;;;;;;;;;;;9.90;99.90;;;;;;5086177;28;20039;-74
2022/12/24 06:21:27;;;;;;;;;;;9.80;99.90;;;;;;5091497;28;20361;-74
2022/12/24 06:23:55;;;;;;;;;;;9.80;99.90;;;;;;5086003;28;19968;-74
2022/12/24 06:26:22;;;;;;;;;;;9.80;99.90;;;;;;5087184;28;20370;-74
2022/12/24 06:28:50;;;;;;;;;;;9.80;99.90;;;;;;5089782;28;20366;-75
2022/12/24 06:31:17;;;;;;;;;;;9.80;99.90;;;;;;5066161;28;20026;-75
2022/12/24 06:33:44;;;;;;;;;;;9.80;99.90;;;;;;5073711;28;19932;-73
2022/12/24 06:36:14;;;;;;;;;;;9.80;99.90;;;;;;5071767;28;19966;-73
2022/12/24 06:38:41;;;;;;;;;;;9.80;99.90;;;;;;5070639;28;19934;-73
2022/12/24 06:41:09;;;;;;;;;;;9.90;99.90;;;;;;5071021;28;19939;-73
2022/12/24 06:43:36;;;;;;;;;;;9.90;99.90;;;;;;5069957;28;19947;-74
2022/12/24 06:46:04;;;;;;;;;;;9.90;99.90;;;;;;5074115;28;20412;-74
2022/12/24 06:48:31;;;;;;;;;;;9.90;99.90;;;;;;5069566;28;19955;-74
2022/12/24 06:50:58;;;;;;;;;;;9.90;99.90;;;;;;5067326;28;20619;-73
2022/12/24 06:53:24;;;;;;;;;;;9.90;99.90;;;;;;5070116;28;19939;-71
2022/12/24 06:55:51;;;;;;;;;;;10.00;99.90;;;;;;5067361;28;20391;-72
2022/12/24 06:58:19;;;;;;;;;;;10.00;99.90;;;;;;5066327;28;20422;-71
2022/12/24 07:03:49;;;;;;;;;;;10.00;99.90;;;;;;5071994;28;19924;-72
2022/12/24 07:06:17;;;;;;;;;;;10.00;99.90;;;;;;5067503;28;19932;-72
2022/12/24 07:08:44;;;;;;;;;;;9.90;99.90;;;;;;5069098;28;20466;-72
2022/12/24 07:11:10;;;;;;;;;;;9.90;99.90;;;;;;5070397;28;19935;-72
2022/12/24 07:13:38;;;;;;;;;;;9.90;99.90;;;;;;5067763;28;20018;-70
2022/12/24 07:16:05;;;;;;;;;;;9.90;99.90;;;;;;5068792;28;19939;-73
2022/12/24 07:18:32;;;;;;;;;;;9.90;99.90;;;;;;5066386;28;20395;-72
2022/12/24 07:20:58;;;;;;;;;;;9.80;99.90;;;;;;5068650;28;20545;-72
2022/12/24 07:23:25;;;;;;;;;;;9.80;99.90;;;;;;5065042;28;19924;-70
2022/12/24 07:25:52;;;;;;;;;;;9.80;99.90;;;;;;5067658;28;19928;-74
2022/12/24 07:28:18;;;;;;;;;;;9.80;99.90;;;;;;5067296;28;20399;-73
2022/12/24 07:30:47;;;;;;;;;;;9.80;99.90;;;;;;5066844;28;19932;-72
2022/12/24 07:33:14;;;;;;;;;;;9.80;99.90;;;;;;5066621;28;19932;-72
2022/12/24 07:35:41;;;;;;;;;;;9.80;99.90;;;;;;5066163;28;19940;-72
2022/12/24 07:38:07;;;;;;;;;;;9.80;99.90;;;;;;5067830;28;19963;-73
2022/12/24 07:40:34;;;;;;;;;;;9.80;99.90;;;;;;5066808;28;20679;-72
2022/12/24 07:43:01;;;;;;;;;;;9.80;99.90;;;;;;5068520;28;20317;-73
2022/12/24 07:45:28;;;;;;;;;;;9.80;99.90;;;;;;5066594;28;20066;-71
2022/12/24 07:47:56;;;;;;;;;;;9.80;99.90;;;;;;5069081;28;20439;-72
2022/12/24 07:50:22;;;;;;;;;;;9.80;99.90;;;;;;5064319;28;19993;-72
2022/12/24 07:52:51;;;;;;;;;;;9.70;99.90;;;;;;5064973;28;20077;-72
2022/12/24 07:55:18;;;;;;;;;;;9.70;99.90;;;;;;5067475;28;19948;-72
2022/12/24 07:57:44;;;;;;;;;;;9.70;99.90;;;;;;5064820;28;20374;-72
2022/12/24 08:00:12;;;;;;;;;;;9.70;99.90;;;;;;5063535;28;19932;-72
2022/12/24 08:02:39;;;;;;;;;;;9.70;99.90;;;;;;5065935;28;19924;-72
2022/12/24 08:05:07;;;;;;;;;;;9.70;99.90;;;;;;5064912;28;19928;-72
2022/12/24 08:07:39;;;;;;;;;;;9.70;99.90;;;;;;5064716;28;19932;-72
2022/12/24 08:10:07;;;;;;;;;;;9.70;99.90;;;;;;5064183;28;20005;-72
2022/12/24 08:12:33;;;;;;;;;;;9.70;99.90;;;;;;5065687;28;19940;-70
2022/12/24 08:15:00;;;;;;;;;;;9.70;99.90;;;;;;5065386;28;20435;-71
2022/12/24 08:17:27;;;;;;;;;;;9.70;99.90;;;;;;5067330;28;20027;-69
2022/12/24 08:19:53;;;;;;;;;;;9.70;99.90;;;;;;5068572;28;19932;-70
2022/12/24 08:22:21;;;;;;;;;;;9.70;99.90;;;;;;5068377;28;19938;-71
2022/12/24 08:24:48;;;;;;;;;;;9.70;99.90;;;;;;5068061;28;19938;-70
2022/12/24 08:27:15;;;;;;;;;;;9.70;99.90;;;;;;5069117;28;19939;-70
2022/12/24 08:29:42;;;;;;;;;;;9.70;99.90;;;;;;5067586;28;19932;-70
2022/12/24 08:32:08;;;;;;;;;;;9.70;99.90;;;;;;5065531;28;19933;-71
2022/12/24 08:34:35;;;;;;;;;;;9.80;99.90;;;;;;5065357;28;20014;-70
2022/12/24 08:37:02;;;;;;;;;;;9.80;99.90;;;;;;5065126;28;20146;-71
2022/12/24 08:39:30;;;;;;;;;;;9.80;99.90;;;;;;5062707;28;19928;-73
2022/12/24 08:41:57;;;;;;;;;;;9.80;99.90;;;;;;5065243;28;20041;-71
2022/12/24 08:44:23;;;;;;;;;;;9.80;99.90;;;;;;5065864;28;20007;-71
2022/12/24 08:46:51;;;;;;;;;;;9.80;99.90;;;;;;5070166;28;20035;-74
2022/12/24 08:49:17;;;;;;;;;;;9.90;99.90;;;;;;5063702;28;20267;-71
2022/12/24 08:51:44;;;;;;;;;;;9.80;99.90;;;;;;5066711;28;21912;-71
2022/12/24 08:54:11;;;;;;;;;;;9.90;99.90;;;;;;5065462;28;19985;-71
2022/12/24 08:56:39;;;;;;;;;;;9.90;99.90;;;;;;5066458;28;20426;-72
2022/12/24 08:59:06;;;;;;;;;;;9.90;99.90;;;;;;5063455;28;19928;-72
2022/12/24 09:01:33;;;;;;;;;;;9.90;99.90;;;;;;5066624;28;19972;-70
2022/12/24 09:04:01;;;;;;;;;;;9.90;99.90;;;;;;5068299;28;20685;-72
2022/12/24 09:06:28;;;;;;;;;;;10.00;99.90;;;;;;5070023;28;20019;-72
2022/12/24 09:08:54;;;;;;;;;;;10.00;99.90;;;;;;5068747;28;19932;-72
2022/12/24 09:11:21;;;;;;;;;;;10.00;99.90;;;;;;5070276;28;19925;-72
2022/12/24 09:13:49;;;;;;;;;;;10.00;99.90;;;;;;5065559;28;19928;-72
2022/12/24 09:16:16;;;;;;;;;;;10.00;99.90;;;;;;5068412;28;19943;-72
2022/12/24 09:18:43;;;;;;;;;;;10.00;99.90;;;;;;5070648;28;20412;-72
2022/12/24 09:21:13;;;;;;;;;;;10.00;99.90;;;;;;5073110;28;19942;-71
2022/12/24 09:23:40;;;;;;;;;;;9.90;99.90;;;;;;5073095;28;19928;-72
2022/12/24 09:26:07;;;;;;;;;;;9.90;99.90;;;;;;5072111;28;19934;-72
2022/12/24 09:28:33;;;;;;;;;;;9.90;99.90;;;;;;5068767;28;20112;-69
2022/12/24 09:31:02;;;;;;;;;;;9.80;99.90;;;;;;5070128;28;19924;-70
2022/12/24 09:33:29;;;;;;;;;;;9.80;99.90;;;;;;5068917;28;19942;-69
2022/12/24 09:35:56;;;;;;;;;;;9.90;99.90;;;;;;5069813;28;19932;-71
2022/12/24 09:38:23;;;;;;;;;;;9.90;99.90;;;;;;5067749;28;19933;-70
2022/12/24 09:40:50;;;;;;;;;;;9.90;99.90;;;;;;5070305;28;19928;-70
2022/12/24 09:43:19;;;;;;;;;;;10.00;99.90;;;;;;5067051;28;19928;-70
2022/12/24 09:45:48;;;;;;;;;;;10.00;99.90;;;;;;5069888;28;19932;-68
2022/12/24 09:48:17;;;;;;;;;;;10.10;99.90;;;;;;5070169;28;20036;-70
2022/12/24 09:50:46;;;;;;;;;;;10.10;99.90;;;;;;5068671;28;19984;-71
2022/12/24 09:53:17;;;;;;;;;;;10.20;99.90;;;;;;5070125;28;20019;-70
2022/12/24 09:55:45;;;;;;;;;;;10.20;99.90;;;;;;5070533;28;19967;-71
2022/12/24 09:58:16;;;;;;;;;;;10.30;99.90;;;;;;5071376;28;19954;-71
2022/12/24 10:00:43;;;;;;;;;;;10.30;99.90;;;;;;5070362;28;19974;-70
2022/12/24 10:03:13;;;;;;;;;;;10.30;99.90;;;;;;5072148;28;19932;-70
2022/12/24 10:05:43;;;;;;;;;;;10.40;99.90;;;;;;5070093;28;19931;-71
2022/12/24 10:08:16;;;;;;;;;;;10.50;99.90;;;;;;5071051;28;19928;-70
2022/12/24 10:10:44;;;;;;;;;;;10.50;99.90;;;;;;5071302;28;20015;-70
2022/12/24 10:13:15;;;;;;;;;;;10.50;99.90;;;;;;5070207;28;19931;-70
2022/12/24 10:15:47;;;;;;;;;;;10.60;99.90;;;;;;5070280;28;19928;-71
2022/12/24 10:18:22;;;;;;;;;;;10.50;99.90;;;;;;5069884;28;19932;-71
2022/12/24 10:20:53;;;;;;;;;;;10.60;99.90;;;;;;5068588;28;19936;-70
2022/12/24 10:23:23;;;;;;;;;;;10.60;99.90;;;;;;5068148;28;20383;-70
2022/12/24 10:25:53;;;;;;;;;;;10.70;99.90;;;;;;5068749;28;20767;-70
2022/12/24 10:28:23;;;;;;;;;;;10.80;99.90;;;;;;5066871;28;19931;-71
2022/12/24 10:30:52;;;;;;;;;;;10.90;99.90;;;;;;5067169;28;19954;-71
2022/12/24 10:33:20;;;;;;;;;;;11.00;99.90;;;;;;5067817;28;19932;-72
2022/12/24 10:35:49;;;;;;;;;;;11.00;99.90;;;;;;5069577;28;19928;-72
2022/12/24 10:38:17;;;;;;;;;;;11.00;99.90;;;;;;5073263;28;19929;-72
2022/12/24 10:40:45;;;;;;;;;;;10.90;99.90;;;;;;5066678;28;19928;-70
2022/12/24 10:43:14;;;;;;;;;;;10.90;99.90;;;;;;5061431;28;19943;-72
2022/12/24 10:45:42;;;;;;;;;;;10.90;99.90;;;;;;5062122;28;20023;-71
2022/12/24 10:48:16;;;;;;;;;;;10.90;99.90;;;;;;5065925;28;20444;-70
2022/12/24 10:50:45;;;;;;;;;;;10.90;99.90;;;;;;5063302;28;19935;-70
2022/12/24 10:53:14;;;;;;;;;;;10.90;99.90;;;;;;5066377;28;20015;-71
2022/12/24 10:55:42;;;;;;;;;;;10.90;99.90;;;;;;5065214;28;19967;-69
2022/12/24 10:58:15;;;;;;;;;;;10.90;99.90;;;;;;5066611;28;19977;-70
2022/12/24 11:00:42;;;;;;;;;;;10.90;99.90;;;;;;5066563;28;20346;-70
2022/12/24 11:03:21;;;;;;;;;;;11.00;99.90;;;;;;5064764;28;20024;-70
2022/12/24 11:05:58;;;;;;;;;;;11.10;99.90;;;;;;5064608;28;19989;-71
2022/12/24 11:08:25;;;;;;;;;;;11.20;99.90;;;;;;5068090;28;19943;-71
2022/12/24 11:10:56;;;;;;;;;;;11.20;99.90;;;;;;5063650;28;19936;-71
2022/12/24 11:13:25;;;;;;;;;;;11.20;99.90;;;;;;5069823;28;19924;-72
2022/12/24 11:15:59;;;;;;;;;;;11.10;99.90;;;;;;5064450;28;19928;-71
2022/12/24 11:18:26;;;;;;;;;;;11.10;99.90;;;;;;5065385;28;20454;-71
2022/12/24 11:20:53;;;;;;;;;;;11.10;99.90;;;;;;5056691;28;20062;-74
2022/12/24 11:23:22;;;;;;;;;;;11.10;99.90;;;;;;5071957;28;20001;-70
2022/12/24 11:25:50;;;;;;;;;;;11.10;99.90;;;;;;5071355;28;19939;-69
2022/12/24 11:28:21;;;;;;;;;;;11.20;99.90;;;;;;5062727;28;19932;-69
2022/12/24 11:30:55;;;;;;;;;;;11.20;99.90;;;;;;5068796;28;19932;-70
2022/12/24 11:33:23;;;;;;;;;;;11.20;99.90;;;;;;5067789;28;20379;-70
2022/12/24 11:35:54;;;;;;;;;;;11.10;99.90;;;;;;5069784;28;19932;-72
2022/12/24 11:38:22;;;;;;;;;;;11.10;99.90;;;;;;5067355;28;19936;-71
2022/12/24 11:40:50;;;;;;;;;;;11.10;99.90;;;;;;5066646;28;19936;-69
2022/12/24 11:43:18;;;;;;;;;;;11.10;99.90;;;;;;5072873;28;19932;-71
2022/12/24 11:45:50;;;;;;;;;;;11.10;99.90;;;;;;5070713;28;19938;-71
2022/12/24 11:48:35;;;;;;;;;;;11.20;99.90;;;;;;5068010;28;20014;-71
2022/12/24 11:51:03;;;;;;;;;;;11.40;99.90;;;;;;5071644;28;19935;-70
2022/12/24 11:53:34;;;;;;;;;;;11.60;99.90;;;;;;5066804;28;19932;-72
2022/12/24 11:56:02;;;;;;;;;;;11.70;99.90;;;;;;5067069;28;20394;-72
2022/12/24 11:58:33;;;;;;;;;;;11.90;99.90;;;;;;5071151;28;19934;-71
2022/12/24 12:01:04;;;;;;;;;;;12.00;99.90;;;;;;5068865;28;20051;-72
2022/12/24 12:03:33;;;;;;;;;;;11.90;99.90;;;;;;5069679;28;20032;-72
2022/12/24 12:06:01;;;;;;;;;;;11.90;99.90;;;;;;5063740;28;19932;-71
2022/12/24 12:08:29;;;;;;;;;;;11.90;99.90;;;;;;5071736;28;19931;-72
2022/12/24 12:10:58;;;;;;;;;;;11.90;99.90;;;;;;5067862;28;19994;-73
2022/12/24 12:13:31;;;;;;;;;;;11.90;99.90;;;;;;5074307;28;19924;-72
2022/12/24 12:16:05;;;;;;;;;;;11.90;99.90;;;;;;5066175;28;19936;-71
2022/12/24 12:18:34;;;;;;;;;;;12.00;99.90;;;;;;5068629;28;20382;-71
2022/12/24 12:21:03;;;;;;;;;;;12.10;99.90;;;;;;5069893;28;20426;-72
2022/12/24 12:23:31;;;;;;;;;;;12.00;99.90;;;;;;5067437;28;20403;-71
2022/12/24 12:25:59;;;;;;;;;;;11.90;99.90;;;;;;5069577;28;20078;-70
2022/12/24 12:28:28;;;;;;;;;;;11.80;99.90;;;;;;5068258;28;19928;-72
2022/12/24 12:31:00;;;;;;;;;;;11.80;99.90;;;;;;5069130;28;20388;-71
2022/12/24 12:33:31;;;;;;;;;;;11.80;99.90;;;;;;5068051;28;19928;-71
2022/12/24 12:36:00;;;;;;;;;;;11.80;99.90;;;;;;5068984;28;19932;-72
2022/12/24 12:38:28;;;;;;;;;;;11.80;99.90;;;;;;5070485;28;21315;-72
2022/12/24 12:41:02;;;;;;;;;;;11.80;99.90;;;;;;5067353;28;20041;-72
2022/12/24 12:43:46;;;;;;;;;;;11.80;99.90;;;;;;5071314;28;19939;-72
2022/12/24 12:46:20;;;;;;;;;;;11.80;99.90;;;;;;5066683;28;20413;-70
2022/12/24 12:49:00;;;;;;;;;;;11.90;99.90;;;;;;5067767;28;19928;-72
2022/12/24 12:51:32;;;;;;;;;;;11.90;99.90;;;;;;5072413;28;20015;-71
2022/12/24 12:54:06;;;;;;;;;;;11.90;99.90;;;;;;5071993;22;19928;-71
2022/12/24 12:56:35;;;;;;;;;;;11.90;99.90;;;;;;5068498;28;19932;-70
2022/12/24 12:59:03;;;;;;;;;;;11.90;99.90;;;;;;5068880;28;19954;-73
2022/12/24 13:01:35;;;;;;;;;;;11.90;99.90;;;;;;5070177;28;19928;-72
2022/12/24 13:04:32;;;;;;;;;;;11.90;99.90;;;;;;5067612;28;19943;-72
2022/12/24 13:07:16;;;;;;;;;;;12.00;99.90;;;;;;5066713;28;20380;-72
2022/12/24 13:09:52;;;;;;;;;;;12.00;99.90;;;;;;5065792;28;19939;-72
2022/12/24 13:12:27;;;;;;;;;;;12.00;99.90;;;;;;5068266;28;19928;-72
2022/12/24 13:15:00;;;;;;;;;;;11.90;99.90;;;;;;5067139;28;20013;-73
2022/12/24 13:17:36;;;;;;;;;;;12.00;99.90;;;;;;5067431;28;19954;-73
2022/12/24 13:20:19;;;;;;;;;;;11.90;99.90;;;;;;5071109;28;20464;-73
2022/12/24 13:22:53;;;;;;;;;;;11.90;99.90;;;;;;5072315;28;20522;-72
2022/12/24 13:25:30;;;;;;;;;;;12.00;99.90;;;;;;5071158;28;19942;-73
2022/12/24 13:27:57;;;;;;;;;;;12.00;99.90;;;;;;5068587;28;20465;-72
2022/12/24 13:30:35;;;;;;;;;;;11.90;99.90;;;;;;5066215;28;19930;-72
2022/12/24 13:33:02;;;;;;;;;;;11.80;99.90;;;;;;5071470;28;19931;-72
2022/12/24 13:35:33;;;;;;;;;;;11.70;99.90;;;;;;5067225;28;19928;-71
2022/12/24 13:38:19;;;;;;;;;;;11.70;99.90;;;;;;5068755;28;22716;-71
2022/12/24 13:40:47;;;;;;;;;;;11.70;99.90;;;;;;5064008;28;20021;-71
2022/12/24 13:43:14;;;;;;;;;;;11.80;99.90;;;;;;5067253;28;19968;-72
2022/12/24 13:45:42;;;;;;;;;;;11.80;99.90;;;;;;5067343;28;20005;-72
2022/12/24 13:48:14;;;;;;;;;;;11.90;99.90;;;;;;5065730;28;19939;-73
2022/12/24 13:50:43;;;;;;;;;;;11.90;99.90;;;;;;5066153;28;19924;-73
2022/12/24 13:53:20;;;;;;;;;;;11.90;99.90;;;;;;5068114;28;19928;-72
2022/12/24 13:55:51;;;;;;;;;;;11.90;99.90;;;;;;5065980;28;19928;-72
2022/12/24 13:58:19;;;;;;;;;;;11.90;99.90;;;;;;5067380;28;20302;-72
2022/12/24 14:00:53;;;;;;;;;;;11.80;99.90;;;;;;5060152;28;19935;-73
2022/12/24 14:03:24;;;;;;;;;;;11.90;99.90;;;;;;5060864;28;19928;-73
2022/12/24 14:05:52;;;;;;;;;;;11.80;99.90;;;;;;5064191;28;19931;-73
2022/12/24 14:08:26;;;;;;;;;;;11.80;99.90;;;;;;5065941;28;20507;-73
2022/12/24 14:10:59;;;;;;;;;;;11.70;99.90;;;;;;5063849;28;19928;-72
2022/12/24 14:13:45;;;;;;;;;;;11.60;99.90;;;;;;5071758;28;20049;-72
2022/12/24 14:16:12;;;;;;;;;;;11.50;99.90;;;;;;5061191;28;20796;-71
2022/12/24 14:18:40;;;;;;;;;;;11.50;99.90;;;;;;5059730;28;19938;-72
2022/12/24 14:21:08;;;;;;;;;;;11.40;99.90;;;;;;5059163;28;19932;-73
2022/12/24 14:23:44;;;;;;;;;;;11.30;99.90;;;;;;5063587;28;19932;-73
2022/12/24 14:26:15;;;;;;;;;;;11.20;99.90;;;;;;5060594;28;19968;-74
2022/12/24 14:28:45;;;;;;;;;;;11.20;99.90;;;;;;5075455;22;19968;-75
2022/12/24 14:31:14;;;;;;;;;;;11.10;99.90;;;;;;5084713;27;19932;-75
2022/12/24 14:33:41;;;;;;;;;;;11.10;99.90;;;;;;5075106;28;19939;-73
2022/12/24 14:36:09;;;;;;;;;;;11.00;99.90;;;;;;5069316;28;19931;-73
2022/12/24 14:38:36;;;;;;;;;;;11.00;99.90;;;;;;5073076;28;19932;-73
2022/12/24 14:41:09;;;;;;;;;;;11.00;99.90;;;;;;5073549;28;20479;-73
2022/12/24 14:43:46;;;;;;;;;;;10.90;99.90;;;;;;5072349;28;20023;-74